createdAt,value
2022-08-26T00:01:54.304Z,21.04
2022-08-26T00:04:26.076Z,21.01
2022-08-26T00:06:55.715Z,20.82
2022-08-26T00:09:25.264Z,21.03
2022-08-26T00:11:54.260Z,20.92
2022-08-26T00:14:28.332Z,20.77
2022-08-26T00:16:58.669Z,20.65
2022-08-26T00:19:25.701Z,20.93
2022-08-26T00:21:52.825Z,20.91
2022-08-26T00:24:21.763Z,20.92
2022-08-26T00:26:49.942Z,21.00
2022-08-26T00:29:21.345Z,20.73
2022-08-26T00:31:49.965Z,20.59
2022-08-26T00:34:19.392Z,20.82
2022-08-26T00:36:47.372Z,20.85
2022-08-26T00:39:16.313Z,20.80
2022-08-26T00:41:43.681Z,20.41
2022-08-26T00:44:11.243Z,20.75
2022-08-26T00:46:49.219Z,20.74
2022-08-26T00:49:43.727Z,20.70
2022-08-26T00:52:18.761Z,20.65
2022-08-26T00:55:20.523Z,20.73
2022-08-26T00:57:51.571Z,20.67
2022-08-26T01:00:25.170Z,20.62
2022-08-26T01:02:54.821Z,20.30
2022-08-26T01:05:23.790Z,20.07
2022-08-26T01:07:51.383Z,20.25
2022-08-26T01:10:27.521Z,20.46
2022-08-26T01:13:10.202Z,20.47
2022-08-26T01:15:54.857Z,20.16
2022-08-26T01:18:22.786Z,20.47
2022-08-26T01:21:14.196Z,20.39
2022-08-26T01:23:49.042Z,20.43
2022-08-26T01:26:50.306Z,20.33
2022-08-26T01:29:20.165Z,20.17
2022-08-26T01:31:55.444Z,20.22
2022-08-26T01:34:30.808Z,20.04
2022-08-26T01:37:16.876Z,20.04
2022-08-26T01:39:48.618Z,20.10
2022-08-26T01:42:19.681Z,20.07
2022-08-26T01:44:57.775Z,20.21
2022-08-26T01:47:30.341Z,20.17
2022-08-26T01:50:02.977Z,20.09
2022-08-26T01:52:33.523Z,20.08
2022-08-26T01:55:01.577Z,20.16
2022-08-26T01:57:29.296Z,19.95
2022-08-26T02:00:01.858Z,19.95
2022-08-26T02:02:45.106Z,20.12
2022-08-26T02:05:21.594Z,20.11
2022-08-26T02:07:50.739Z,19.78
2022-08-26T02:10:17.764Z,19.97
2022-08-26T02:12:47.821Z,20.00
2022-08-26T02:15:15.290Z,19.95
2022-08-26T02:17:47.195Z,20.18
2022-08-26T02:20:19.256Z,20.14
2022-08-26T02:22:47.826Z,19.81
2022-08-26T02:25:32.853Z,20.11
2022-08-26T02:28:01.282Z,20.09
2022-08-26T02:30:33.567Z,19.85
2022-08-26T02:33:05.495Z,19.96
2022-08-26T02:35:35.620Z,19.90
2022-08-26T02:38:09.951Z,19.36
2022-08-26T02:40:42.140Z,19.97
2022-08-26T02:43:09.741Z,19.70
2022-08-26T02:45:37.027Z,19.97
2022-08-26T02:48:15.223Z,20.01
2022-08-26T02:50:43.417Z,20.02
2022-08-26T02:53:12.119Z,20.00
2022-08-26T02:55:40.888Z,19.45
2022-08-26T02:58:09.848Z,19.93
2022-08-26T03:00:38.969Z,19.94
2022-08-26T03:03:22.491Z,19.93
2022-08-26T03:05:51.918Z,19.51
2022-08-26T03:08:19.801Z,19.83
2022-08-26T03:10:47.612Z,19.86
2022-08-26T03:13:15.555Z,19.80
2022-08-26T03:15:42.741Z,19.71
2022-08-26T03:18:11.019Z,19.74
2022-08-26T03:20:38.720Z,19.66
2022-08-26T03:23:05.716Z,19.58
2022-08-26T03:25:34.262Z,19.44
2022-08-26T03:28:02.380Z,19.80
2022-08-26T03:30:44.664Z,19.82
2022-08-26T03:33:14.080Z,19.81
2022-08-26T03:35:45.112Z,19.77
2022-08-26T03:38:12.817Z,19.42
2022-08-26T03:40:42.479Z,19.76
2022-08-26T03:43:11.870Z,19.77
2022-08-26T03:45:40.814Z,19.76
2022-08-26T03:48:09.001Z,19.63
2022-08-26T03:50:36.252Z,19.85
2022-08-26T03:53:04.277Z,19.91
2022-08-26T03:55:34.530Z,19.93
2022-08-26T03:58:02.190Z,19.88
2022-08-26T04:00:30.247Z,19.79
2022-08-26T04:02:57.443Z,19.67
2022-08-26T04:05:25.329Z,19.66
2022-08-26T04:07:52.940Z,19.62
2022-08-26T04:10:28.494Z,19.41
2022-08-26T04:13:00.140Z,19.52
2022-08-26T04:15:28.115Z,19.64
2022-08-26T04:17:55.807Z,19.81
2022-08-26T04:20:23.235Z,19.80
2022-08-26T04:22:51.129Z,19.72
2022-08-26T04:25:18.639Z,19.42
2022-08-26T04:27:48.317Z,19.84
2022-08-26T04:30:16.010Z,19.66
2022-08-26T04:32:44.108Z,19.83
2022-08-26T04:35:11.486Z,19.75
2022-08-26T04:37:42.701Z,19.65
2022-08-26T04:40:11.470Z,19.70
2022-08-26T04:42:38.591Z,19.63
2022-08-26T04:45:10.202Z,19.79
2022-08-26T04:47:38.123Z,19.85
2022-08-26T04:50:07.523Z,19.88
2022-08-26T04:52:36.627Z,19.92
2022-08-26T04:55:06.633Z,19.69
2022-08-26T04:57:35.790Z,19.93
2022-08-26T05:00:06.927Z,19.87
2022-08-26T05:02:34.332Z,19.58
2022-08-26T05:05:01.584Z,19.83
2022-08-26T05:07:28.691Z,19.99
2022-08-26T05:09:55.669Z,19.95
2022-08-26T05:12:23.325Z,19.98
2022-08-26T05:14:50.359Z,20.05
2022-08-26T05:17:18.993Z,19.74
2022-08-26T05:19:47.091Z,19.78
2022-08-26T05:22:15.022Z,20.09
2022-08-26T05:24:43.187Z,20.05
2022-08-26T05:27:11.870Z,19.84
2022-08-26T05:29:40.895Z,19.99
2022-08-26T05:32:07.996Z,19.89
2022-08-26T05:34:35.015Z,19.93
2022-08-26T05:37:02.071Z,20.09
2022-08-26T05:39:29.465Z,19.72
2022-08-26T05:41:56.556Z,20.03
2022-08-26T05:44:24.466Z,20.21
2022-08-26T05:46:51.945Z,20.24
2022-08-26T05:49:20.316Z,20.32
2022-08-26T05:51:49.541Z,20.41
2022-08-26T05:54:22.132Z,20.35
2022-08-26T05:56:51.889Z,20.36
2022-08-26T05:59:24.028Z,20.27
2022-08-26T06:01:54.705Z,20.44
2022-08-26T06:04:27.534Z,20.50
2022-08-26T06:06:56.918Z,20.33
2022-08-26T06:09:24.226Z,20.55
2022-08-26T06:11:51.818Z,20.58
2022-08-26T06:14:20.601Z,20.14
2022-08-26T06:16:47.898Z,20.27
2022-08-26T06:19:15.616Z,20.76
2022-08-26T06:21:47.850Z,21.10
2022-08-26T06:24:39.904Z,21.25
2022-08-26T06:27:09.934Z,21.10
2022-08-26T06:29:38.534Z,21.22
2022-08-26T06:32:06.771Z,20.97
2022-08-26T06:34:34.143Z,21.57
2022-08-26T06:37:02.817Z,21.37
2022-08-26T06:39:32.013Z,21.73
2022-08-26T06:42:01.104Z,21.70
2022-08-26T06:44:30.730Z,21.71
2022-08-26T06:46:59.568Z,21.59
2022-08-26T06:49:27.804Z,21.56
2022-08-26T06:51:58.400Z,21.74
2022-08-26T06:54:31.444Z,21.44
2022-08-26T06:56:59.071Z,21.37
2022-08-26T06:59:26.837Z,21.82
2022-08-26T07:01:54.719Z,21.62
2022-08-26T07:04:24.443Z,21.50
2022-08-26T07:06:53.587Z,21.69
2022-08-26T07:09:27.955Z,21.96
2022-08-26T07:11:56.339Z,21.97
2022-08-26T07:14:24.380Z,21.83
2022-08-26T07:16:52.060Z,21.85
2022-08-26T07:19:30.066Z,22.11
2022-08-26T07:22:04.750Z,22.22
2022-08-26T07:24:38.243Z,22.54
2022-08-26T07:27:09.858Z,22.73
2022-08-26T07:29:39.471Z,22.35
2022-08-26T07:32:08.137Z,23.07
2022-08-26T07:34:37.734Z,22.67
2022-08-26T07:37:08.910Z,22.94
2022-08-26T07:39:37.699Z,23.05
2022-08-26T07:42:10.645Z,22.89
2022-08-26T07:44:39.651Z,22.81
2022-08-26T07:47:19.406Z,23.02
2022-08-26T07:49:55.722Z,22.63
2022-08-26T07:52:27.190Z,23.47
2022-08-26T07:54:58.140Z,23.53
2022-08-26T07:57:26.880Z,23.72
2022-08-26T07:59:55.074Z,23.88
2022-08-26T08:02:24.835Z,23.85
2022-08-26T08:04:52.775Z,24.04
2022-08-26T08:07:20.233Z,24.55
2022-08-26T08:09:49.589Z,24.71
2022-08-26T08:12:19.107Z,24.86
2022-08-26T08:14:48.240Z,25.07
2022-08-26T08:17:16.395Z,25.27
2022-08-26T08:19:43.826Z,25.46
2022-08-26T08:22:17.367Z,25.37
2022-08-26T08:24:45.258Z,25.60
2022-08-26T08:27:23.286Z,25.97
2022-08-26T08:29:54.310Z,26.16
2022-08-26T08:32:23.906Z,26.63
2022-08-26T08:34:50.919Z,27.04
2022-08-26T08:37:18.001Z,27.69
2022-08-26T08:39:45.405Z,27.92
2022-08-26T08:45:37.056Z,28.65
2022-08-26T08:48:27.765Z,29.44
2022-08-26T08:51:27.794Z,30.40
2022-08-26T08:53:56.307Z,31.24
2022-08-26T08:56:38.938Z,31.43
2022-08-26T08:59:18.232Z,31.80
2022-08-26T09:01:52.538Z,31.86
2022-08-26T09:04:54.942Z,31.95
2022-08-26T09:07:37.320Z,31.93
2022-08-26T09:10:51.476Z,32.20
2022-08-26T09:13:24.904Z,32.80
2022-08-26T09:16:15.787Z,33.19
2022-08-26T09:19:25.590Z,33.61
2022-08-26T09:22:02.256Z,32.85
2022-08-26T09:24:41.792Z,31.14
2022-08-26T09:27:50.524Z,30.16
2022-08-26T09:30:37.279Z,29.14
2022-08-26T09:33:15.943Z,28.66
2022-08-26T09:35:48.763Z,28.75
2022-08-26T09:38:28.227Z,27.61
2022-08-26T09:41:01.724Z,27.70
2022-08-26T09:43:29.597Z,27.64
2022-08-26T09:46:14.721Z,27.44
2022-08-26T09:48:42.985Z,26.85
2022-08-26T09:51:23.126Z,27.25
2022-08-26T09:54:01.778Z,26.99
2022-08-26T09:56:36.695Z,26.74
2022-08-26T09:59:11.027Z,26.54
2022-08-26T10:01:44.931Z,26.73
2022-08-26T10:04:22.686Z,26.71
2022-08-26T10:07:04.136Z,26.60
2022-08-26T10:09:43.350Z,26.61
2022-08-26T10:12:21.169Z,26.06
2022-08-26T10:15:08.093Z,25.88
2022-08-26T10:17:40.180Z,25.67
2022-08-26T10:20:28.922Z,25.50
2022-08-26T10:23:07.280Z,25.27
2022-08-26T10:25:51.300Z,25.06
2022-08-26T10:28:40.700Z,25.04
2022-08-26T10:31:27.878Z,25.04
2022-08-26T10:34:00.122Z,25.13
2022-08-26T10:37:10.554Z,25.07
2022-08-26T10:40:02.604Z,25.03
2022-08-26T10:42:37.758Z,25.04
2022-08-26T10:45:22.011Z,25.05
2022-08-26T10:48:06.793Z,25.45
2022-08-26T10:50:41.650Z,26.02
2022-08-26T10:53:32.731Z,26.52
2022-08-26T10:56:18.932Z,27.48
2022-08-26T10:59:00.342Z,28.01
2022-08-26T11:01:44.184Z,27.92
2022-08-26T11:04:47.694Z,27.45
2022-08-26T11:07:46.790Z,26.92
2022-08-26T11:10:16.696Z,27.23
2022-08-26T11:12:45.333Z,28.10
2022-08-26T11:15:26.192Z,29.15
2022-08-26T11:17:55.254Z,30.25
2022-08-26T11:20:42.113Z,30.63
2022-08-26T11:23:24.221Z,30.50
2022-08-26T11:26:35.691Z,30.47
2022-08-26T11:29:13.370Z,30.40
2022-08-26T11:31:50.356Z,30.40
2022-08-26T11:34:37.446Z,30.33
2022-08-26T11:37:17.010Z,29.61
2022-08-26T11:39:55.477Z,29.60
2022-08-26T11:42:43.514Z,30.67
2022-08-26T11:45:24.239Z,31.73
2022-08-26T11:47:52.243Z,32.81
2022-08-26T11:50:27.309Z,33.43
2022-08-26T11:53:01.953Z,33.34
2022-08-26T11:55:32.365Z,33.59
2022-08-26T11:58:04.659Z,32.96
2022-08-26T12:00:46.601Z,32.91
2022-08-26T12:03:23.498Z,32.91
2022-08-26T12:05:53.498Z,32.66
2022-08-26T12:08:27.982Z,32.27
2022-08-26T12:11:08.547Z,32.34
2022-08-26T12:13:39.017Z,31.87
2022-08-26T12:16:07.358Z,31.23
2022-08-26T12:18:38.855Z,30.78
2022-08-26T12:21:24.295Z,30.48
2022-08-26T12:23:59.158Z,30.67
2022-08-26T12:26:37.136Z,30.76
2022-08-26T12:29:27.457Z,30.70
2022-08-26T12:32:15.837Z,30.68
2022-08-26T12:34:47.265Z,30.51
2022-08-26T12:37:15.621Z,30.81
2022-08-26T12:39:44.948Z,30.89
2022-08-26T12:42:17.441Z,30.82
2022-08-26T12:45:01.931Z,30.90
2022-08-26T12:47:43.102Z,30.83
2022-08-26T12:50:25.509Z,30.54
2022-08-26T12:53:10.557Z,30.75
2022-08-26T12:55:55.185Z,30.73
2022-08-26T12:58:29.947Z,30.88
2022-08-26T13:01:06.516Z,30.99
2022-08-26T13:03:45.598Z,31.09
2022-08-26T13:06:38.639Z,30.24
2022-08-26T13:09:30.288Z,30.29
2022-08-26T13:11:59.637Z,30.05
2022-08-26T13:14:29.193Z,29.89
2022-08-26T13:16:56.266Z,30.22
2022-08-26T13:19:26.690Z,30.36
2022-08-26T13:22:00.377Z,30.48
2022-08-26T13:24:36.618Z,30.59
2022-08-26T13:27:06.805Z,30.77
2022-08-26T13:29:36.794Z,30.85
2022-08-26T13:32:06.690Z,30.81
2022-08-26T13:34:36.773Z,30.56
2022-08-26T13:37:04.790Z,30.62
2022-08-26T13:39:32.918Z,30.75
2022-08-26T13:42:00.267Z,30.45
2022-08-26T13:44:27.720Z,30.05
2022-08-26T13:46:55.975Z,29.86
2022-08-26T13:49:23.108Z,29.42
2022-08-26T13:51:51.410Z,29.56
2022-08-26T13:54:18.585Z,29.15
2022-08-26T13:56:45.949Z,29.09
2022-08-26T13:59:13.063Z,28.89
2022-08-26T14:01:40.250Z,28.98
2022-08-26T14:04:08.599Z,28.72
2022-08-26T14:06:35.756Z,28.79
2022-08-26T14:09:03.228Z,28.89
2022-08-26T14:11:41.140Z,28.83
2022-08-26T14:14:17.416Z,28.64
2022-08-26T14:16:59.072Z,28.86
2022-08-26T14:19:31.561Z,28.67
2022-08-26T14:22:00.942Z,28.07
2022-08-26T14:24:29.325Z,28.19
2022-08-26T14:26:56.561Z,28.39
2022-08-26T14:29:23.606Z,28.40
2022-08-26T14:31:50.811Z,28.37
2022-08-26T14:34:18.173Z,28.57
2022-08-26T14:36:45.247Z,28.99
2022-08-26T14:39:14.752Z,28.97
2022-08-26T14:41:54.496Z,29.00
2022-08-26T14:44:27.814Z,29.18
2022-08-26T14:46:55.759Z,29.02
2022-08-26T14:49:27.217Z,29.13
2022-08-26T14:51:55.553Z,29.33
2022-08-26T14:54:22.623Z,29.19
2022-08-26T14:56:59.269Z,29.33
2022-08-26T14:59:31.150Z,29.42
2022-08-26T15:01:59.191Z,29.38
2022-08-26T15:04:27.055Z,29.17
2022-08-26T15:06:57.370Z,29.52
2022-08-26T15:09:25.457Z,29.63
2022-08-26T15:11:53.311Z,29.77
2022-08-26T15:14:21.999Z,29.88
2022-08-26T15:16:52.739Z,29.89
2022-08-26T15:19:20.996Z,29.94
2022-08-26T15:21:48.791Z,30.09
2022-08-26T15:24:20.352Z,30.07
2022-08-26T15:26:48.565Z,29.74
2022-08-26T15:29:15.965Z,29.49
2022-08-26T15:31:43.364Z,29.49
2022-08-26T15:34:16.425Z,29.49
2022-08-26T15:36:47.085Z,29.82
2022-08-26T15:39:16.621Z,29.78
2022-08-26T15:41:44.025Z,29.46
2022-08-26T15:44:13.218Z,29.12
2022-08-26T15:46:41.999Z,29.31
2022-08-26T15:49:17.564Z,29.47
2022-08-26T15:51:48.217Z,29.45
2022-08-26T15:54:17.997Z,29.42
2022-08-26T15:56:47.318Z,29.56
2022-08-26T15:59:16.132Z,29.40
2022-08-26T16:01:43.631Z,29.15
2022-08-26T16:04:11.505Z,28.80
2022-08-26T16:06:41.290Z,28.55
2022-08-26T16:09:09.137Z,28.36
2022-08-26T16:11:37.710Z,28.22
2022-08-26T16:14:05.632Z,28.01
2022-08-26T16:16:33.242Z,27.59
2022-08-26T16:19:04.278Z,27.68
2022-08-26T16:21:34.326Z,27.72
2022-08-26T16:24:01.431Z,27.58
2022-08-26T16:26:32.863Z,27.24
2022-08-26T16:29:05.045Z,27.08
2022-08-26T16:31:32.639Z,27.01
2022-08-26T16:33:59.770Z,26.96
2022-08-26T16:36:27.313Z,26.84
2022-08-26T16:38:56.470Z,26.55
2022-08-26T16:41:27.194Z,26.70
2022-08-26T16:43:55.109Z,26.60
2022-08-26T16:46:26.219Z,26.51
2022-08-26T16:48:58.530Z,26.47
2022-08-26T16:51:28.069Z,26.42
2022-08-26T16:53:57.447Z,26.36
2022-08-26T16:56:33.471Z,26.03
2022-08-26T16:59:05.607Z,26.26
2022-08-26T17:01:32.724Z,26.12
2022-08-26T17:04:00.020Z,26.12
2022-08-26T17:06:27.248Z,26.01
2022-08-26T17:08:54.349Z,25.87
2022-08-26T17:11:21.412Z,25.80
2022-08-26T17:13:48.517Z,25.74
2022-08-26T17:16:15.788Z,25.61
2022-08-26T17:18:43.055Z,25.39
2022-08-26T17:21:13.398Z,25.12
2022-08-26T17:23:43.435Z,25.30
2022-08-26T17:26:12.323Z,25.13
2022-08-26T17:28:39.949Z,24.98
2022-08-26T17:31:09.557Z,24.93
2022-08-26T17:33:37.668Z,24.90
2022-08-26T17:36:07.450Z,24.91
2022-08-26T17:38:35.746Z,24.93
2022-08-26T17:41:03.385Z,24.90
2022-08-26T17:43:31.076Z,24.63
2022-08-26T17:46:07.147Z,24.81
2022-08-26T17:48:37.462Z,24.83
2022-08-26T17:51:14.343Z,24.79
2022-08-26T17:53:43.090Z,24.64
2022-08-26T17:56:14.325Z,24.64
2022-08-26T17:58:51.063Z,24.61
2022-08-26T18:01:20.827Z,24.43
2022-08-26T18:03:49.060Z,24.64
2022-08-26T18:06:16.366Z,24.62
2022-08-26T18:08:44.857Z,24.61
2022-08-26T18:11:20.577Z,24.57
2022-08-26T18:13:48.017Z,24.64
2022-08-26T18:16:17.673Z,24.64
2022-08-26T18:18:46.818Z,24.57
2022-08-26T18:21:21.842Z,24.49
2022-08-26T18:23:51.002Z,24.44
2022-08-26T18:26:27.184Z,24.42
2022-08-26T18:28:54.998Z,24.39
2022-08-26T18:31:22.169Z,24.33
2022-08-26T18:33:50.213Z,24.27
2022-08-26T18:36:26.113Z,24.32
2022-08-26T18:38:54.358Z,24.01
2022-08-26T18:41:24.147Z,24.25
2022-08-26T18:43:54.238Z,24.15
2022-08-26T18:46:27.699Z,24.11
2022-08-26T18:48:56.784Z,23.76
2022-08-26T18:51:34.339Z,23.52
2022-08-26T18:54:06.412Z,23.46
2022-08-26T18:56:36.894Z,24.04
2022-08-26T18:59:06.303Z,23.98
2022-08-26T19:01:36.012Z,23.91
2022-08-26T19:04:05.915Z,23.64
2022-08-26T19:06:35.691Z,24.07
2022-08-26T19:09:05.335Z,24.07
2022-08-26T19:11:37.628Z,24.00
2022-08-26T19:14:15.970Z,23.95
2022-08-26T19:16:46.946Z,23.80
2022-08-26T19:19:15.431Z,23.93
2022-08-26T19:21:43.013Z,23.68
2022-08-26T19:24:17.247Z,23.91
2022-08-26T19:26:49.447Z,23.82
2022-08-26T19:29:20.837Z,23.75
2022-08-26T19:31:48.665Z,24.04
2022-08-26T19:34:17.508Z,23.83
2022-08-26T19:36:49.213Z,23.80
2022-08-26T19:39:16.256Z,23.85
2022-08-26T19:41:43.975Z,23.59
2022-08-26T19:44:35.815Z,23.73
2022-08-26T19:47:04.204Z,23.80
2022-08-26T19:49:32.256Z,23.64
2022-08-26T19:52:00.698Z,23.73
2022-08-26T19:54:28.369Z,23.71
2022-08-26T19:56:55.381Z,23.69
2022-08-26T19:59:22.425Z,23.64
2022-08-26T20:01:52.898Z,23.65
2022-08-26T20:04:28.042Z,23.54
2022-08-26T20:06:58.663Z,23.40
2022-08-26T20:09:33.014Z,23.21
2022-08-26T20:12:01.275Z,23.19
2022-08-26T20:14:29.867Z,23.09
2022-08-26T20:16:57.450Z,23.01
2022-08-26T20:19:44.011Z,23.10
2022-08-26T20:22:11.810Z,23.27
2022-08-26T20:24:39.285Z,23.40
2022-08-26T20:27:07.912Z,23.37
2022-08-26T20:29:36.991Z,23.37
2022-08-26T20:32:08.047Z,23.28
2022-08-26T20:34:37.209Z,23.38
2022-08-26T20:37:05.433Z,23.34
2022-08-26T20:39:32.587Z,23.37
2022-08-26T20:41:59.710Z,23.34
2022-08-26T20:44:30.525Z,23.35
2022-08-26T20:46:59.145Z,23.37
2022-08-26T20:49:28.307Z,23.36
2022-08-26T20:51:55.398Z,23.35
2022-08-26T20:54:28.509Z,23.33
2022-08-26T20:56:58.411Z,23.31
2022-08-26T20:59:26.871Z,23.28
2022-08-26T21:01:54.330Z,23.15
2022-08-26T21:04:25.111Z,22.96
2022-08-26T21:06:54.364Z,23.09
2022-08-26T21:09:25.766Z,23.03
2022-08-26T21:11:54.720Z,22.95
2022-08-26T21:14:25.643Z,22.76
2022-08-26T21:16:53.673Z,22.89
2022-08-26T21:19:20.792Z,22.80
2022-08-26T21:21:48.959Z,22.77
2022-08-26T21:24:17.216Z,22.71
2022-08-26T21:26:45.014Z,22.72
2022-08-26T21:29:13.729Z,22.63
2022-08-26T21:31:45.999Z,22.41
2022-08-26T21:34:16.919Z,22.25
2022-08-26T21:36:46.119Z,22.15
2022-08-26T21:39:14.468Z,22.22
2022-08-26T21:41:43.755Z,21.83
2022-08-26T21:44:13.300Z,22.26
2022-08-26T21:46:42.087Z,22.06
2022-08-26T21:49:13.459Z,22.15
2022-08-26T21:51:46.038Z,21.95
2022-08-26T21:54:14.424Z,21.98
2022-08-26T21:56:46.159Z,21.95
2022-08-26T21:59:18.963Z,22.01
2022-08-26T22:01:47.126Z,22.00
2022-08-26T22:04:15.740Z,21.89
2022-08-26T22:06:50.013Z,21.59
2022-08-26T22:09:23.740Z,22.02
2022-08-26T22:11:53.143Z,21.99
2022-08-26T22:14:30.364Z,22.04
2022-08-26T22:16:59.887Z,22.05
2022-08-26T22:19:27.355Z,22.11
2022-08-26T22:21:55.836Z,21.90
2022-08-26T22:24:26.730Z,22.11
2022-08-26T22:26:55.523Z,21.64
2022-08-26T22:29:25.126Z,21.79
2022-08-26T22:31:53.088Z,21.96
2022-08-26T22:34:21.273Z,21.92
2022-08-26T22:36:49.977Z,21.25
2022-08-26T22:39:22.440Z,21.94
2022-08-26T22:41:50.629Z,21.85
2022-08-26T22:44:20.468Z,21.86
2022-08-26T22:46:51.341Z,21.77
2022-08-26T22:49:19.593Z,21.82
2022-08-26T22:51:47.377Z,21.86
2022-08-26T22:54:15.730Z,21.81
2022-08-26T22:56:45.087Z,21.81
2022-08-26T22:59:13.163Z,21.79
2022-08-26T23:01:44.146Z,21.60
2022-08-26T23:04:11.773Z,21.38
2022-08-26T23:06:43.097Z,21.72
2022-08-26T23:09:11.055Z,21.53
2022-08-26T23:11:42.817Z,21.75
2022-08-26T23:14:10.342Z,21.75
2022-08-26T23:16:41.630Z,21.57
2022-08-26T23:19:12.797Z,21.29
2022-08-26T23:21:40.771Z,21.77
2022-08-26T23:24:09.850Z,21.96
2022-08-26T23:26:38.406Z,21.96
2022-08-26T23:29:08.385Z,21.88
2022-08-26T23:31:38.578Z,21.74
2022-08-26T23:34:25.359Z,21.59
2022-08-26T23:36:53.823Z,21.40
2022-08-26T23:39:21.257Z,21.26
2022-08-26T23:41:48.399Z,21.52
2022-08-26T23:44:15.525Z,21.42
2022-08-26T23:46:42.637Z,21.05
2022-08-26T23:49:09.700Z,21.36
2022-08-26T23:51:57.338Z,21.37
2022-08-26T23:54:24.495Z,21.38
2022-08-26T23:56:51.818Z,21.19
2022-08-26T23:59:18.964Z,21.01
